Time;durP1;ratioP1;P1;durP2;ratioP2;P2;SDS_P1;SDS_P2;PMS_P1;PMS_P2;Temp;Humidity;BMP_temperature;BMP_pressure;BME280_temperature;BME280_humidity;BME280_pressure;Samples;Min_cycle;Max_cycle;Signal;HPM_P1;HPM_P2
2024/01/30 00:01:52;;;;;;;21.75;12.80;;;;;;;13.63;70.52;102608.91;5071308;28;20071;-48
2024/01/30 00:04:17;;;;;;;22.25;13.32;;;;;;;13.73;69.90;102605.69;5072055;28;20682;-46
2024/01/30 00:06:43;;;;;;;22.50;12.65;;;;;;;13.71;69.83;102603.03;5071520;28;20037;-42
2024/01/30 00:09:10;;;;;;;21.75;12.25;;;;;;;13.77;69.83;102604.94;5069712;28;20120;-47
2024/01/30 00:11:36;;;;;;;21.00;12.82;;;;;;;13.66;69.82;102606.38;5069704;28;20033;-46
2024/01/30 00:14:01;;;;;;;24.52;12.98;;;;;;;13.74;69.88;102613.59;5069507;28;20569;-46
2024/01/30 00:16:28;;;;;;;26.23;13.20;;;;;;;13.71;69.54;102613.53;5069859;28;20036;-48
2024/01/30 00:18:54;;;;;;;22.67;12.48;;;;;;;13.61;69.90;102600.97;5069530;28;20039;-46
2024/01/30 00:21:20;;;;;;;21.88;12.65;;;;;;;13.47;70.23;102591.88;5072578;28;20032;-46
2024/01/30 00:23:46;;;;;;;21.60;12.57;;;;;;;13.82;69.18;102579.72;5074023;28;20049;-44
2024/01/30 00:26:11;;;;;;;19.92;12.02;;;;;;;13.81;68.82;102585.81;5073564;28;20036;-46
2024/01/30 00:28:38;;;;;;;21.65;12.40;;;;;;;13.76;69.31;102593.56;5073683;28;20118;-45
2024/01/30 00:31:04;;;;;;;21.02;11.80;;;;;;;13.95;68.56;102580.94;5073357;28;20062;-48
2024/01/30 00:33:29;;;;;;;20.65;12.23;;;;;;;13.86;68.13;102578.97;5073791;28;20032;-47
2024/01/30 00:35:55;;;;;;;20.20;11.68;;;;;;;13.91;68.70;102579.06;5073579;28;20085;-46
2024/01/30 00:38:20;;;;;;;20.08;11.68;;;;;;;13.91;68.21;102579.06;5072690;28;20483;-46
2024/01/30 00:40:45;;;;;;;19.65;11.98;;;;;;;13.73;69.02;102579.47;5073741;28;20077;-48
2024/01/30 00:43:11;;;;;;;21.08;12.30;;;;;;;13.76;68.55;102588.31;5073033;28;20119;-46
2024/01/30 00:45:36;;;;;;;20.15;11.77;;;;;;;13.92;68.12;102593.97;5073414;28;20040;-44
2024/01/30 00:48:02;;;;;;;19.48;11.68;;;;;;;13.95;67.86;102589.72;5072616;28;20032;-47
2024/01/30 00:50:27;;;;;;;19.20;11.50;;;;;;;13.95;67.86;102600.19;5073302;28;20028;-47
2024/01/30 00:52:52;;;;;;;20.65;11.73;;;;;;;13.84;68.14;102612.13;5071499;28;20040;-48
2024/01/30 00:55:17;;;;;;;20.67;11.98;;;;;;;13.79;68.46;102608.47;5072937;28;20036;-47
2024/01/30 00:57:43;;;;;;;20.52;11.90;;;;;;;13.92;67.57;102601.84;5073130;28;20032;-46
2024/01/30 01:00:09;;;;;;;19.23;11.52;;;;;;;13.88;67.55;102592.13;5073012;28;20029;-46
2024/01/30 01:02:35;;;;;;;23.45;12.95;;;;;;;13.89;67.22;102589.53;5073225;28;20090;-50
2024/01/30 01:05:00;;;;;;;19.52;11.80;;;;;;;13.84;67.72;102599.03;5073219;28;20029;-46
2024/01/30 01:07:26;;;;;;;22.30;11.98;;;;;;;13.77;67.99;102594.44;5073173;28;20031;-45
2024/01/30 01:09:51;;;;;;;21.00;12.25;;;;;;;13.73;68.35;102596.09;5073980;28;20047;-45
2024/01/30 01:12:16;;;;;;;21.98;11.88;;;;;;;13.84;67.82;102587.66;5072456;28;20075;-45
2024/01/30 01:14:42;;;;;;;23.20;11.70;;;;;;;13.81;67.60;102584.09;5073013;28;20479;-45
2024/01/30 01:17:07;;;;;;;21.73;11.68;;;;;;;13.67;68.24;102595.91;5071896;28;20056;-46
2024/01/30 01:19:32;;;;;;;18.95;11.65;;;;;;;13.90;67.46;102585.19;5072969;28;20056;-45
2024/01/30 01:21:58;;;;;;;21.15;12.07;;;;;;;13.94;67.26;102576.56;5072127;28;20032;-45
2024/01/30 01:24:24;;;;;;;21.88;12.00;;;;;;;13.85;67.21;102577.19;5073283;28;20032;-46
2024/01/30 01:26:49;;;;;;;18.65;12.13;;;;;;;13.86;67.19;102571.09;5071146;28;20071;-45
2024/01/30 01:29:15;;;;;;;22.35;11.30;;;;;;;13.91;67.32;102550.22;5072671;28;20408;-45
2024/01/30 01:31:43;;;;;;;22.20;12.52;;;;;;;13.74;67.62;102555.94;5072259;28;20033;-46
2024/01/30 01:34:12;;;;;;;19.63;11.63;;;;;;;13.89;67.42;102551.94;5072195;28;20098;-45
2024/01/30 01:36:38;;;;;;;21.67;11.98;;;;;;;13.90;67.61;102549.38;5072127;28;20037;-48
2024/01/30 01:39:04;;;;;;;19.77;11.48;;;;;;;13.96;67.30;102551.28;5072365;28;20041;-48
2024/01/30 01:41:31;;;;;;;20.17;11.50;;;;;;;14.01;67.09;102554.91;5072493;28;20034;-45
2024/01/30 01:43:57;;;;;;;18.42;11.40;;;;;;;13.95;67.34;102559.97;5073484;28;20467;-45
2024/01/30 01:46:23;;;;;;;20.33;11.50;;;;;;;13.97;67.08;102555.63;5072945;28;20531;-45
2024/01/30 01:48:48;;;;;;;21.92;11.38;;;;;;;13.88;67.32;102568.53;5071809;28;20494;-46
2024/01/30 01:51:15;;;;;;;20.08;11.40;;;;;;;13.86;67.22;102567.59;5072533;28;20068;-45
2024/01/30 01:53:41;;;;;;;20.60;11.23;;;;;;;13.84;67.54;102550.94;5074345;28;20066;-46
2024/01/30 01:56:06;;;;;;;20.35;11.63;;;;;;;13.82;67.48;102558.75;5074186;28;20040;-45
2024/01/30 01:58:32;;;;;;;21.23;12.02;;;;;;;13.79;67.48;102563.91;5072928;28;20060;-46
2024/01/30 02:00:58;;;;;;;18.67;11.52;;;;;;;13.79;67.79;102564.78;5073032;28;20036;-45
2024/01/30 02:03:24;;;;;;;22.10;11.70;;;;;;;13.82;67.44;102562.28;5055870;28;20119;-45
2024/01/30 02:05:50;;;;;;;20.80;11.57;;;;;;;13.88;67.23;102561.53;5071443;28;20528;-45
2024/01/30 02:08:16;;;;;;;18.20;11.60;;;;;;;13.82;67.30;102558.75;5075697;28;20121;-46
2024/01/30 02:10:41;;;;;;;22.45;11.88;;;;;;;13.82;67.81;102553.53;5075951;28;20036;-45
2024/01/30 02:13:07;;;;;;;21.83;11.40;;;;;;;13.73;67.80;102548.00;5071428;28;20090;-45
2024/01/30 02:15:32;;;;;;;21.77;11.52;;;;;;;13.82;67.86;102551.78;5071891;28;20486;-43
2024/01/30 02:17:57;;;;;;;19.00;11.10;;;;;;;13.96;67.24;102548.66;5070711;28;20498;-48
2024/01/30 02:20:25;;;;;;;19.65;11.45;;;;;;;13.85;67.69;102547.44;5070095;28;20060;-47
2024/01/30 02:22:54;;;;;;;22.35;11.93;;;;;;;13.80;67.91;102547.34;5071519;28;20071;-46
2024/01/30 02:25:19;;;;;;;19.23;11.50;;;;;;;13.91;67.38;102543.25;5071208;28;20032;-45
2024/01/30 02:27:45;;;;;;;18.00;11.05;;;;;;;13.87;67.61;102549.28;5070788;28;20486;-47
2024/01/30 02:30:11;;;;;;;19.25;11.38;;;;;;;13.89;67.47;102549.34;5071207;28;20032;-44
2024/01/30 02:32:36;;;;;;;21.13;10.77;;;;;;;13.96;67.41;102548.66;5070885;28;20032;-50
2024/01/30 02:35:01;;;;;;;16.95;10.82;;;;;;;13.98;67.13;102547.81;5071222;28;20038;-45
2024/01/30 02:37:27;;;;;;;19.42;11.38;;;;;;;13.87;67.72;102551.91;5071190;28;20028;-46
2024/01/30 02:39:52;;;;;;;17.92;10.95;;;;;;;13.98;67.09;102553.06;5071668;28;20063;-48
2024/01/30 02:42:17;;;;;;;19.83;11.15;;;;;;;13.98;67.03;102539.06;5070133;28;20063;-45
2024/01/30 02:44:42;;;;;;;18.38;10.75;;;;;;;13.86;67.60;102538.75;5075794;28;20056;-47
2024/01/30 02:47:08;;;;;;;18.50;11.30;;;;;;;13.88;67.57;102540.56;5074913;28;20039;-43
2024/01/30 02:49:33;;;;;;;16.35;10.55;;;;;;;14.00;67.09;102527.78;5074447;28;20029;-45
2024/01/30 02:51:58;;;;;;;20.63;11.23;;;;;;;13.94;67.17;102517.13;5076502;28;20037;-47
2024/01/30 02:54:24;;;;;;;19.95;10.60;;;;;;;13.86;67.91;102516.03;5074549;28;20032;-46
2024/01/30 02:56:49;;;;;;;18.08;10.80;;;;;;;13.85;67.83;102513.38;5070237;28;20040;-48
2024/01/30 02:59:14;;;;;;;19.27;11.00;;;;;;;13.93;67.52;102510.13;5070740;28;20033;-44
2024/01/30 03:01:44;;;;;;;19.05;11.07;;;;;;;13.97;67.08;102513.69;5070766;28;20071;-45
2024/01/30 03:04:10;;;;;;;20.02;10.88;;;;;;;13.96;67.41;102509.31;5069990;28;20043;-44
2024/01/30 03:06:35;;;;;;;21.38;10.88;;;;;;;13.92;67.42;102507.44;5070275;28;20024;-43
2024/01/30 03:09:00;;;;;;;17.63;10.95;;;;;;;13.87;67.53;102509.94;5070393;28;20037;-46
2024/01/30 03:11:26;;;;;;;20.13;11.35;;;;;;;13.89;67.76;102516.13;5070988;28;20032;-45
2024/01/30 03:13:51;;;;;;;19.65;10.60;;;;;;;13.93;67.50;102511.84;5070815;28;20036;-44
2024/01/30 03:16:16;;;;;;;16.70;10.77;;;;;;;13.91;67.67;102517.03;5070030;28;20048;-46
2024/01/30 03:18:42;;;;;;;19.60;11.15;;;;;;;13.82;68.15;102514.19;5070410;28;20498;-43
2024/01/30 03:21:07;;;;;;;18.00;10.88;;;;;;;13.75;68.67;102517.50;5069587;28;20589;-46
2024/01/30 03:23:32;;;;;;;20.80;10.60;;;;;;;13.95;68.17;102510.16;5071265;28;20041;-46
2024/01/30 03:25:58;;;;;;;17.30;10.48;;;;;;;13.85;68.01;102511.63;5069771;28;20056;-45
2024/01/30 03:28:23;;;;;;;21.50;10.80;;;;;;;13.80;68.42;102515.88;5069912;28;20430;-47
2024/01/30 03:30:48;;;;;;;19.45;10.95;;;;;;;13.80;68.44;102514.16;5068988;28;20040;-47
2024/01/30 03:33:14;;;;;;;19.92;10.57;;;;;;;13.97;68.49;102514.56;5069359;28;20507;-44
2024/01/30 03:35:39;;;;;;;17.27;10.20;;;;;;;14.00;67.79;102512.03;5070132;28;20044;-45
2024/01/30 03:38:04;;;;;;;19.65;11.00;;;;;;;14.03;67.88;102516.47;5069271;28;20043;-44
2024/01/30 03:40:30;;;;;;;16.83;10.55;;;;;;;14.00;68.00;102513.78;5070182;28;20033;-45
2024/01/30 03:42:55;;;;;;;18.13;10.45;;;;;;;13.99;68.09;102512.00;5069955;28;20033;-49
2024/01/30 03:45:20;;;;;;;22.08;10.70;;;;;;;13.90;68.08;102511.78;5071028;28;20495;-45
2024/01/30 03:47:45;;;;;;;17.23;10.75;;;;;;;13.97;67.80;102500.56;5070918;28;20060;-45
2024/01/30 03:50:11;;;;;;;16.23;10.23;;;;;;;13.86;68.25;102502.94;5071582;28;20087;-44
2024/01/30 03:52:36;;;;;;;19.77;10.80;;;;;;;13.99;67.73;102499.78;5071963;28;20406;-45
2024/01/30 03:55:01;;;;;;;18.33;10.38;;;;;;;14.04;67.51;102497.25;5069660;28;20047;-45
2024/01/30 03:57:27;;;;;;;18.05;11.00;;;;;;;14.07;67.70;102499.97;5069403;28;20438;-47
2024/01/30 03:59:53;;;;;;;18.65;11.02;;;;;;;13.95;68.06;102508.44;5070129;28;20043;-46
2024/01/30 04:02:18;;;;;;;17.58;10.65;;;;;;;13.99;67.63;102507.66;5067944;28;20064;-43
2024/01/30 04:04:44;;;;;;;16.25;10.30;;;;;;;14.05;67.54;102504.28;5070242;28;20506;-47
2024/01/30 04:07:09;;;;;;;17.80;10.88;;;;;;;13.97;67.71;102501.47;5069166;28;20044;-46
2024/01/30 04:09:34;;;;;;;18.05;10.55;;;;;;;14.05;67.51;102502.56;5070382;28;20031;-45
2024/01/30 04:12:00;;;;;;;20.00;10.45;;;;;;;14.05;67.50;102499.94;5069819;28;20036;-45
2024/01/30 04:14:25;;;;;;;16.35;10.55;;;;;;;13.97;67.71;102504.09;5070127;28;20494;-45
2024/01/30 04:16:50;;;;;;;17.80;10.15;;;;;;;13.76;68.64;102506.16;5069977;28;20039;-51
2024/01/30 04:19:16;;;;;;;18.52;10.65;;;;;;;13.81;68.67;102507.16;5070123;28;20033;-48
2024/01/30 04:21:41;;;;;;;15.95;10.35;;;;;;;13.99;67.86;102499.78;5073995;28;20065;-47
2024/01/30 04:24:06;;;;;;;18.17;10.52;;;;;;;13.82;68.38;102496.72;5069827;28;20037;-45
2024/01/30 04:26:32;;;;;;;18.55;10.77;;;;;;;13.86;68.49;102489.81;5071962;28;20114;-46
2024/01/30 04:28:57;;;;;;;17.98;10.60;;;;;;;14.03;68.12;102492.88;5069837;28;20111;-47
2024/01/30 04:31:22;;;;;;;20.45;10.73;;;;;;;14.07;67.60;102487.75;5069186;28;20486;-47
2024/01/30 04:33:48;;;;;;;19.33;10.60;;;;;;;13.93;68.09;102481.28;5069630;28;20037;-46
2024/01/30 04:36:13;;;;;;;16.90;10.80;;;;;;;14.01;68.02;102474.50;5067532;28;20041;-45
2024/01/30 04:38:39;;;;;;;19.08;10.70;;;;;;;14.07;67.84;102477.25;5069555;28;20029;-47
2024/01/30 04:41:04;;;;;;;20.50;10.38;;;;;;;14.05;67.79;102484.19;5069553;28;20122;-44
2024/01/30 04:43:30;;;;;;;18.92;10.65;;;;;;;13.93;68.43;102472.50;5069733;28;20083;-47
2024/01/30 04:45:55;;;;;;;18.98;10.77;;;;;;;14.00;68.23;102471.81;5069787;28;20070;-46
2024/01/30 04:48:21;;;;;;;19.98;10.70;;;;;;;14.04;67.95;102468.41;5068737;28;20048;-45
2024/01/30 04:50:46;;;;;;;17.40;10.45;;;;;;;14.02;68.14;102467.50;5069671;28;20059;-46
2024/01/30 04:53:11;;;;;;;17.42;10.45;;;;;;;13.96;68.35;102463.00;5069508;28;20044;-45
2024/01/30 04:55:37;;;;;;;17.42;10.20;;;;;;;14.05;67.94;102476.31;5070083;28;20129;-45
2024/01/30 04:58:02;;;;;;;19.95;10.82;;;;;;;14.09;67.90;102478.16;5068094;28;20050;-48
2024/01/30 05:00:27;;;;;;;17.63;10.80;;;;;;;14.14;67.68;102471.31;5070467;28;20025;-47
2024/01/30 05:02:55;;;;;;;18.00;10.63;;;;;;;14.21;67.30;102486.34;5069748;28;20036;-49
2024/01/30 05:05:21;;;;;;;20.15;10.50;;;;;;;13.92;67.97;102473.34;5070010;28;20097;-45
2024/01/30 05:07:47;;;;;;;18.90;10.57;;;;;;;14.13;67.66;102479.16;5073033;28;20119;-46
2024/01/30 05:10:12;;;;;;;17.75;10.65;;;;;;;14.06;68.10;102480.72;5073670;28;20564;-44
2024/01/30 05:12:39;;;;;;;23.27;10.30;;;;;;;14.09;67.94;102479.91;5074451;28;20036;-45
2024/01/30 05:15:04;;;;;;;20.60;10.23;;;;;;;14.11;67.69;102480.84;5074743;28;20037;-45
2024/01/30 05:17:30;;;;;;;18.17;10.65;;;;;;;14.09;67.97;102479.91;5075723;28;20379;-45
2024/01/30 05:19:55;;;;;;;22.10;10.80;;;;;;;14.18;67.81;102480.13;5076863;28;20384;-49
2024/01/30 05:22:20;;;;;;;20.23;10.68;;;;;;;14.15;67.84;102473.06;5074773;28;20028;-43
2024/01/30 05:24:45;;;;;;;17.45;10.60;;;;;;;14.19;67.69;102482.81;5075036;28;20040;-46
2024/01/30 05:27:13;;;;;;;17.75;10.32;;;;;;;14.20;67.25;102483.69;5072440;28;20565;-45
2024/01/30 05:29:38;;;;;;;18.30;10.60;;;;;;;13.87;68.81;102486.34;5072827;28;20056;-44
2024/01/30 05:32:05;;;;;;;17.83;10.02;;;;;;;14.27;67.44;102487.34;5070734;28;20521;-46
2024/01/30 05:34:31;;;;;;;16.63;10.13;;;;;;;14.17;67.47;102479.25;5072724;28;20039;-45
2024/01/30 05:36:56;;;;;;;19.98;10.30;;;;;;;14.18;67.28;102482.75;5072446;28;20116;-45
2024/01/30 05:39:21;;;;;;;18.23;10.48;;;;;;;14.23;67.11;102479.41;5072417;28;20063;-45
2024/01/30 05:41:46;;;;;;;18.17;10.55;;;;;;;14.22;67.73;102477.63;5072826;28;20115;-46
2024/01/30 05:44:12;;;;;;;20.52;11.05;;;;;;;14.29;67.22;102478.66;5073068;28;20032;-46
2024/01/30 05:46:37;;;;;;;16.45;10.18;;;;;;;14.07;68.11;102474.66;5072287;28;20340;-44
2024/01/30 05:49:02;;;;;;;18.30;10.82;;;;;;;14.01;68.34;102469.25;5054286;28;20037;-46
2024/01/30 05:51:28;;;;;;;19.75;10.15;;;;;;;14.23;67.75;102479.41;5072494;28;20487;-44
2024/01/30 05:53:54;;;;;;;21.65;11.27;;;;;;;14.11;68.40;102488.69;5073729;28;20067;-44
2024/01/30 05:56:19;;;;;;;17.48;10.27;;;;;;;14.09;68.25;102482.53;5072006;28;20028;-45
2024/01/30 05:58:44;;;;;;;21.73;10.27;;;;;;;14.15;68.51;102487.91;5072328;28;20521;-45
2024/01/30 06:01:10;;;;;;;18.77;10.73;;;;;;;14.21;67.98;102490.69;5071738;28;20406;-45
2024/01/30 06:03:35;;;;;;;21.73;10.73;;;;;;;14.29;67.67;102486.53;5072424;28;20040;-46
2024/01/30 06:06:01;;;;;;;21.25;10.50;;;;;;;14.32;67.34;102490.97;5071279;28;20040;-44
2024/01/30 06:08:26;;;;;;;18.80;10.07;;;;;;;14.31;67.65;102491.81;5071787;28;20500;-45
2024/01/30 06:10:52;;;;;;;20.52;10.90;;;;;;;14.37;67.67;102481.47;5071719;28;20036;-44
2024/01/30 06:13:17;;;;;;;21.90;10.30;;;;;;;14.38;67.61;102483.28;5071618;28;20029;-44
2024/01/30 06:15:42;;;;;;;19.88;10.90;;;;;;;14.34;67.64;102495.38;5072412;28;20403;-45
2024/01/30 06:18:08;;;;;;;19.67;10.85;;;;;;;14.48;67.54;102493.13;5071052;28;20590;-44
2024/01/30 06:20:33;;;;;;;20.88;11.02;;;;;;;14.56;66.95;102492.47;5071894;28;20044;-45
2024/01/30 06:22:59;;;;;;;19.13;10.43;;;;;;;14.55;67.00;102485.44;5071686;28;20063;-43
2024/01/30 06:25:24;;;;;;;19.50;10.90;;;;;;;14.56;66.83;102492.47;5072148;28;20028;-47
2024/01/30 06:27:50;;;;;;;20.33;10.80;;;;;;;14.48;67.10;102499.25;5071371;28;20036;-47
2024/01/30 06:30:15;;;;;;;16.95;10.15;;;;;;;14.36;67.67;102493.69;5071807;28;20044;-48
2024/01/30 06:32:40;;;;;;;19.08;10.57;;;;;;;14.33;67.61;102488.38;5071624;28;20600;-45
2024/01/30 06:35:06;;;;;;;19.35;9.88;;;;;;;14.34;67.70;102491.88;5071133;28;20040;-47
2024/01/30 06:37:31;;;;;;;20.42;10.32;;;;;;;14.29;68.22;102494.41;5071053;28;20029;-45
2024/01/30 06:39:57;;;;;;;18.80;10.15;;;;;;;14.42;67.72;102488.63;5071403;28;20032;-45
2024/01/30 06:42:22;;;;;;;17.33;10.43;;;;;;;14.48;67.62;102496.63;5071144;28;20026;-47
2024/01/30 06:44:48;;;;;;;17.33;10.45;;;;;;;14.39;68.01;102491.19;5073404;28;20032;-46
2024/01/30 06:47:13;;;;;;;19.25;10.52;;;;;;;14.47;67.71;102497.47;5075364;28;20029;-45
2024/01/30 06:49:38;;;;;;;18.13;10.32;;;;;;;14.48;67.82;102495.75;5076129;28;20399;-44
2024/01/30 06:52:07;;;;;;;18.60;10.35;;;;;;;14.36;67.89;102500.69;5072487;28;20117;-45
2024/01/30 06:54:33;;;;;;;18.92;10.10;;;;;;;14.35;68.70;102488.41;5071374;28;20024;-47
2024/01/30 06:56:58;;;;;;;18.63;10.27;;;;;;;14.56;68.09;102499.44;5070038;28;20388;-46
2024/01/30 06:59:24;;;;;;;17.13;9.65;;;;;;;14.69;67.36;102506.75;5070921;28;20487;-46
2024/01/30 07:01:49;;;;;;;19.02;10.38;;;;;;;14.78;66.94;102490.28;5070843;28;20040;-44
2024/01/30 07:04:15;;;;;;;22.48;10.18;;;;;;;14.71;67.45;102505.03;5070720;28;20560;-46
2024/01/30 07:06:41;;;;;;;20.80;9.55;;;;;;;14.72;67.28;102501.56;5068974;28;20028;-46
2024/01/30 07:09:06;;;;;;;21.17;10.50;;;;;;;14.67;67.67;102500.56;5070405;28;20574;-44
2024/01/30 07:11:32;;;;;;;17.90;10.30;;;;;;;14.74;67.46;102507.72;5070954;28;20032;-50
2024/01/30 07:13:58;;;;;;;21.90;10.20;;;;;;;14.90;66.83;102508.94;5070816;28;20076;-45
2024/01/30 07:16:23;;;;;;;19.10;10.30;;;;;;;14.87;67.15;102508.91;5071221;28;20056;-45
2024/01/30 07:18:49;;;;;;;20.67;10.15;;;;;;;14.64;68.10;102518.00;5071447;28;20102;-44
2024/01/30 07:21:15;;;;;;;18.92;10.30;;;;;;;14.76;67.48;102507.78;5071214;28;20067;-44
2024/01/30 07:23:41;;;;;;;21.58;10.38;;;;;;;14.44;68.83;102522.78;5071681;28;20499;-51
2024/01/30 07:26:06;;;;;;;18.67;10.10;;;;;;;14.74;67.97;102517.34;5069990;28;20043;-45
2024/01/30 07:28:32;;;;;;;20.80;10.25;;;;;;;14.85;67.54;102515.84;5069539;28;20025;-46
2024/01/30 07:30:57;;;;;;;19.83;10.20;;;;;;;15.01;66.91;102518.81;5070150;28;20580;-50
2024/01/30 07:33:23;;;;;;;17.85;10.02;;;;;;;14.89;67.54;102523.81;5068622;28;20119;-45
2024/01/30 07:35:48;;;;;;;21.10;10.30;;;;;;;14.99;67.57;102530.16;5070160;28;20056;-46
2024/01/30 07:38:14;;;;;;;18.77;10.40;;;;;;;14.94;67.52;102540.53;5069307;28;20509;-45
2024/01/30 07:40:39;;;;;;;17.35;9.73;;;;;;;15.18;66.62;102536.69;5070159;28;20124;-45
2024/01/30 07:43:04;;;;;;;20.38;10.05;;;;;;;15.23;66.48;102541.19;5069654;28;20059;-45
2024/01/30 07:45:33;;;;;;;20.60;10.80;;;;;;;14.95;67.73;102542.31;5069964;28;20116;-49
2024/01/30 07:47:59;;;;;;;21.85;10.55;;;;;;;15.06;67.91;102539.06;5069356;28;20078;-47
2024/01/30 07:50:25;;;;;;;19.73;10.70;;;;;;;14.97;68.06;102539.75;5070403;28;20123;-48
2024/01/30 07:52:54;;;;;;;22.83;9.80;;;;;;;14.82;69.26;102548.16;5069977;28;20124;-48
2024/01/30 07:55:31;;;;;;;24.23;10.10;;;;;;;14.92;68.71;102550.16;5069775;28;20065;-50
2024/01/30 07:57:57;;;;;;;20.52;10.50;;;;;;;15.05;68.66;102543.44;5069290;28;20406;-45
2024/01/30 08:00:22;;;;;;;20.38;9.90;;;;;;;15.09;68.01;102542.63;5069350;28;20745;-45
2024/01/30 08:02:56;;;;;;;20.30;9.80;;;;;;;15.23;67.87;102549.06;5069931;28;20024;-47
2024/01/30 08:05:23;;;;;;;21.98;10.15;;;;;;;15.26;67.58;102558.75;5069975;28;20085;-45
2024/01/30 08:07:48;;;;;;;22.35;10.30;;;;;;;15.35;67.06;102556.31;5070119;28;20040;-50
2024/01/30 08:10:15;;;;;;;20.48;10.05;;;;;;;15.10;67.84;102568.06;5069873;28;20028;-52
2024/01/30 08:12:40;;;;;;;24.08;10.93;;;;;;;15.17;67.22;102556.81;5069997;28;20037;-47
2024/01/30 08:15:06;;;;;;;19.63;10.60;;;;;;;14.90;68.42;102569.34;5070022;28;20043;-45
2024/01/30 08:17:31;;;;;;;25.23;10.57;;;;;;;14.96;69.09;102572.09;5069641;28;20075;-45
2024/01/30 08:19:57;;;;;;;23.40;10.85;;;;;;;15.15;68.02;102578.66;5070341;28;20043;-46
2024/01/30 08:22:22;;;;;;;23.13;10.63;;;;;;;15.24;67.68;102573.63;5070505;28;20036;-46
2024/01/30 08:24:47;;;;;;;24.15;11.25;;;;;;;14.68;69.62;102577.59;5072750;28;20064;-45
2024/01/30 08:27:13;;;;;;;20.35;11.68;;;;;;;14.80;69.34;102578.75;5071400;28;20418;-49
2024/01/30 08:29:38;;;;;;;24.25;11.38;;;;;;;15.26;67.32;102571.88;5075851;28;20068;-44
2024/01/30 08:32:07;;;;;;;22.98;10.88;;;;;;;15.23;67.75;102567.47;5075985;28;20086;-44
2024/01/30 08:34:33;;;;;;;27.80;11.70;;;;;;;14.84;68.75;102580.59;5075815;28;20068;-46
2024/01/30 08:36:58;;;;;;;19.83;11.10;;;;;;;14.92;68.86;102579.03;5069042;28;20066;-48
2024/01/30 08:39:23;;;;;;;22.45;11.27;;;;;;;15.21;68.03;102574.41;5069825;28;20090;-48
2024/01/30 08:41:49;;;;;;;23.75;11.48;;;;;;;15.24;67.34;102576.25;5071956;28;20499;-44
2024/01/30 08:44:14;;;;;;;23.20;11.52;;;;;;;15.01;68.76;102576.59;5073272;28;20089;-47
2024/01/30 08:46:40;;;;;;;24.65;11.23;;;;;;;15.00;67.93;102584.47;5073323;28;20406;-45
2024/01/30 08:49:05;;;;;;;22.85;10.95;;;;;;;14.68;69.73;102573.22;5072020;28;20032;-46
2024/01/30 08:51:31;;;;;;;20.08;11.18;;;;;;;14.86;69.00;102570.13;5073178;28;20052;-46
2024/01/30 08:53:56;;;;;;;19.58;10.50;;;;;;;14.91;69.34;102577.25;5073198;28;20437;-50
2024/01/30 08:56:22;;;;;;;23.90;11.35;;;;;;;14.87;68.92;102580.69;5072472;28;20040;-47
2024/01/30 08:58:47;;;;;;;26.90;11.27;;;;;;;14.89;68.88;102572.81;5072750;28;20048;-45
2024/01/30 09:01:12;;;;;;;20.92;11.10;;;;;;;14.81;68.93;102577.91;5072374;28;20036;-44
2024/01/30 09:03:40;;;;;;;24.33;11.70;;;;;;;14.84;68.66;102580.59;5073352;28;20092;-44
2024/01/30 09:06:08;;;;;;;22.42;11.27;;;;;;;14.82;68.79;102600.66;5070930;28;20044;-45
2024/01/30 09:08:34;;;;;;;20.52;11.30;;;;;;;14.75;69.68;102592.63;5073066;28;20036;-44
2024/01/30 09:10:59;;;;;;;18.15;10.75;;;;;;;14.90;68.29;102599.13;5073595;28;20037;-45
2024/01/30 09:13:25;;;;;;;21.55;10.88;;;;;;;14.95;67.53;102604.47;5073758;28;20028;-45
2024/01/30 09:15:50;;;;;;;24.60;10.05;;;;;;;14.50;67.99;102607.78;5072262;28;20051;-44
2024/01/30 09:18:15;;;;;;;20.27;10.25;;;;;;;14.05;69.75;102596.97;5072496;28;20035;-44
2024/01/30 09:20:41;;;;;;;24.52;10.30;;;;;;;14.01;70.25;102612.59;5072889;28;20048;-45
2024/01/30 09:23:06;;;;;;;18.08;9.52;;;;;;;14.02;69.55;102609.13;5071336;28;20032;-45
2024/01/30 09:25:31;;;;;;;14.77;8.68;;;;;;;14.32;68.00;102616.91;5071557;28;20513;-45
2024/01/30 09:27:56;;;;;;;15.80;8.88;;;;;;;14.51;66.97;102614.81;5072399;28;20502;-46
2024/01/30 09:30:22;;;;;;;16.48;8.70;;;;;;;14.11;68.50;102609.34;5072578;28;20021;-45
2024/01/30 09:32:47;;;;;;;15.30;8.35;;;;;;;14.21;68.42;102617.50;5072474;28;20033;-49
2024/01/30 09:35:13;;;;;;;17.67;8.77;;;;;;;13.83;69.37;102623.47;5072330;28;20051;-48
2024/01/30 09:37:38;;;;;;;17.35;8.65;;;;;;;14.30;67.84;102636.94;5072981;28;20043;-44
2024/01/30 09:40:05;;;;;;;18.95;8.38;;;;;;;13.70;70.45;102645.81;5072071;28;20039;-45
2024/01/30 09:42:35;;;;;;;20.65;7.35;;;;;;;13.50;71.05;102667.91;5073306;28;20064;-45
2024/01/30 09:45:02;;;;;;;15.85;5.28;;;;;;;13.48;70.49;102679.22;5073380;28;20064;-45
2024/01/30 09:47:30;;;;;;;12.27;4.03;;;;;;;13.61;70.14;102661.25;5073567;28;20086;-49
2024/01/30 09:49:57;;;;;;;14.93;3.92;;;;;;;13.88;68.87;102668.16;5072732;28;20029;-43
2024/01/30 09:52:22;;;;;;;16.70;3.65;;;;;;;13.96;67.91;102675.41;5071644;28;20487;-48
2024/01/30 09:54:49;;;;;;;12.27;3.15;;;;;;;13.67;69.63;102671.91;5074036;28;20116;-43
2024/01/30 09:57:14;;;;;;;11.45;3.08;;;;;;;13.80;68.64;102665.31;5071850;28;20041;-47
2024/01/30 09:59:42;;;;;;;14.80;3.00;;;;;;;14.00;67.72;102669.38;5076361;28;20119;-44
2024/01/30 10:02:08;;;;;;;15.30;3.10;;;;;;;13.34;69.39;102677.06;5070431;28;20036;-44
2024/01/30 10:04:33;;;;;;;9.75;3.00;;;;;;;13.21;70.16;102680.13;5072068;28;20032;-42
2024/01/30 10:07:02;;;;;;;12.63;3.10;;;;;;;13.03;70.69;102671.66;5069264;28;20406;-49
2024/01/30 10:09:27;;;;;;;7.05;2.50;;;;;;;13.00;69.92;102685.53;5071629;28;20120;-47
2024/01/30 10:11:52;;;;;;;7.88;2.75;;;;;;;13.32;68.29;102673.50;5068600;28;20127;-44
2024/01/30 10:14:18;;;;;;;8.43;2.40;;;;;;;13.23;69.23;102682.81;5070864;28;20098;-46
2024/01/30 10:16:45;;;;;;;8.57;2.33;;;;;;;13.36;68.34;102675.34;5071093;28;20036;-47
2024/01/30 10:19:11;;;;;;;6.93;2.08;;;;;;;13.38;68.64;102678.91;5071133;28;20177;-49
2024/01/30 10:21:36;;;;;;;8.75;2.05;;;;;;;13.52;68.55;102674.09;5071199;28;20036;-45
2024/01/30 10:24:02;;;;;;;6.50;1.80;;;;;;;13.49;68.50;102670.50;5071681;28;20036;-47
2024/01/30 10:26:29;;;;;;;10.23;1.92;;;;;;;13.51;68.98;102685.44;5071550;28;20035;-46
2024/01/30 10:28:54;;;;;;;10.32;1.70;;;;;;;13.37;69.77;102690.25;5070913;28;20490;-45
2024/01/30 10:31:19;;;;;;;7.15;1.60;;;;;;;13.09;71.20;102694.53;5070831;28;20123;-50
2024/01/30 10:33:48;;;;;;;5.15;1.58;;;;;;;13.01;71.55;102681.19;5071491;28;20530;-47
2024/01/30 10:36:15;;;;;;;8.68;1.55;;;;;;;13.07;70.65;102690.97;5071157;28;20086;-46
2024/01/30 10:38:42;;;;;;;6.95;1.30;;;;;;;12.76;72.39;102695.22;5072749;28;20457;-47
2024/01/30 10:41:12;;;;;;;8.57;1.50;;;;;;;12.66;72.22;102706.22;5072211;28;20086;-44
2024/01/30 10:43:41;;;;;;;11.52;1.85;;;;;;;12.81;71.05;102695.34;5074576;28;20036;-46
2024/01/30 10:46:17;;;;;;;4.97;1.13;;;;;;;12.84;70.68;102685.88;5073911;28;20111;-50
2024/01/30 10:48:48;;;;;;;7.18;1.15;;;;;;;12.68;71.42;102685.34;5071046;28;20411;-45
2024/01/30 10:51:14;;;;;;;4.43;1.20;;;;;;;12.88;70.96;102692.09;5069117;28;20517;-48
2024/01/30 10:53:39;;;;;;;6.97;1.35;;;;;;;12.72;71.79;102682.88;5070694;28;20115;-47
2024/01/30 10:56:05;;;;;;;4.80;1.13;;;;;;;12.84;71.08;102705.94;5069702;28;20037;-48
2024/01/30 10:58:31;;;;;;;6.00;1.15;;;;;;;12.32;74.06;102690.22;5070375;28;20044;-49
2024/01/30 11:00:57;;;;;;;8.30;1.25;;;;;;;12.16;75.81;102699.22;5070289;28;20052;-45
2024/01/30 11:03:23;;;;;;;5.90;1.45;;;;;;;12.13;77.16;102701.72;5069116;28;20068;-45
2024/01/30 11:05:51;;;;;;;10.63;1.50;;;;;;;12.00;75.96;102720.41;5070309;28;20111;-46